AMQ1125 GCLP-EPKT
Flight info
| Callsign | AMQ1125 |
|---|---|
| Flight time | N/A |
| Altitude | 34000 |
| Route | KORAL UG5 SONSO UN871 ESS/N0436F360 UN871 OSDAM UM985 BARPA M985 PIMOS M445 SOPET M985 BCN N870 DIBER UN870 SOSUR DCT NOSTA DCT ROBAS DCT DETSA/N0431F370 DCT LADAG DCT LANUX DCT BAVOK |
| Aircraft | A320/M-SDE3FGHIRWY/LB1 |
Departure
| Time | 2026-05-05 13:51 |
|---|---|
| Airport | Gran Canaria Airport (GCLP) |
Arrival
| Time | N/A |
|---|---|
| Airport | Katowice Wojciech Korfanty International Airport (EPKT) |
| Time | Latitude | Longitude | Altitude | Speed | Heading |
|---|---|---|---|---|---|
| 2026-05-05 13:25 | 27.93691 | -15.38723 | 82 ft | 0 kts | 291° |
| 2026-05-05 13:42 | 27.93690 | -15.38720 | 82 ft | 1 kts | 291° |
| 2026-05-05 13:42 | 27.93684 | -15.38701 | 107 ft | 3 kts | 286° |
| 2026-05-05 13:43 | 27.93679 | -15.38679 | 80 ft | 3 kts | 278° |
| 2026-05-05 13:43 | 27.93677 | -15.38657 | 83 ft | 3 kts | 263° |
| 2026-05-05 13:43 | 27.93682 | -15.38637 | 75 ft | 3 kts | 228° |
| 2026-05-05 13:43 | 27.93691 | -15.38629 | 68 ft | 1 kts | 201° |
| 2026-05-05 13:44 | 27.93694 | -15.38627 | 68 ft | 1 kts | 201° |
| 2026-05-05 13:45 | 27.93692 | -15.38628 | 68 ft | 3 kts | 201° |
| 2026-05-05 13:46 | 27.93670 | -15.38638 | 70 ft | 13 kts | 201° |
| 2026-05-05 13:46 | 27.93515 | -15.38706 | 73 ft | 33 kts | 201° |
| 2026-05-05 13:46 | 27.93293 | -15.38803 | 70 ft | 34 kts | 201° |
| 2026-05-05 13:47 | 27.93073 | -15.38910 | 68 ft | 34 kts | 202° |
| 2026-05-05 13:47 | 27.92858 | -15.39004 | 84 ft | 33 kts | 201° |
| 2026-05-05 13:47 | 27.92654 | -15.39093 | 90 ft | 30 kts | 201° |
| 2026-05-05 13:47 | 27.92462 | -15.39179 | 95 ft | 29 kts | 201° |
| 2026-05-05 13:48 | 27.92279 | -15.39260 | 99 ft | 27 kts | 201° |
| 2026-05-05 13:48 | 27.92099 | -15.39339 | 96 ft | 29 kts | 202° |
| 2026-05-05 13:48 | 27.91921 | -15.39401 | 92 ft | 12 kts | 162° |
| 2026-05-05 13:48 | 27.91909 | -15.39364 | 90 ft | 10 kts | 108° |
| 2026-05-05 13:49 | 27.91911 | -15.39276 | 89 ft | 13 kts | 82° |
| 2026-05-05 13:49 | 27.91878 | -15.39168 | 87 ft | 17 kts | 112° |
| 2026-05-05 13:49 | 27.91860 | -15.39029 | 71 ft | 19 kts | 58° |
| 2026-05-05 13:49 | 27.91922 | -15.38990 | 73 ft | 0 kts | 22° |
| 2026-05-05 13:50 | 27.92014 | -15.38947 | 67 ft | 48 kts | 22° |
| 2026-05-05 13:50 | 27.92584 | -15.38696 | 54 ft | 126 kts | 21° |
| 2026-05-05 13:50 | 27.93588 | -15.38250 | 116 ft | 176 kts | 22° |
| 2026-05-05 13:51 | 27.94781 | -15.37743 | 807 ft | 184 kts | 22° |
| 2026-05-05 13:51 | 27.96071 | -15.37216 | 1208 ft | 211 kts | 19° |
| 2026-05-05 13:51 | 27.97539 | -15.36624 | 1452 ft | 237 kts | 19° |
| 2026-05-05 13:51 | 27.99119 | -15.35983 | 1687 ft | 243 kts | 20° |
| 2026-05-05 13:52 | 28.00719 | -15.35326 | 1909 ft | 245 kts | 20° |
| 2026-05-05 13:52 | 28.02324 | -15.34662 | 2131 ft | 248 kts | 20° |
| 2026-05-05 13:52 | 28.03922 | -15.33997 | 2354 ft | 247 kts | 20° |
| 2026-05-05 13:52 | 28.05533 | -15.33315 | 2571 ft | 248 kts | 20° |
| 2026-05-05 13:53 | 28.07159 | -15.32612 | 2801 ft | 253 kts | 20° |
| 2026-05-05 13:53 | 28.08823 | -15.31887 | 3406 ft | 257 kts | 20° |
| 2026-05-05 13:53 | 28.10514 | -15.31148 | 3882 ft | 263 kts | 21° |
| 2026-05-05 13:53 | 28.12228 | -15.30401 | 4026 ft | 265 kts | 21° |
| 2026-05-05 13:54 | 28.13893 | -15.29525 | 4051 ft | 264 kts | 35° |
| 2026-05-05 13:54 | 28.15153 | -15.28008 | 4284 ft | 270 kts | 57° |
| 2026-05-05 13:54 | 28.16165 | -15.26228 | 4968 ft | 269 kts | 56° |
| 2026-05-05 13:54 | 28.17203 | -15.24448 | 5139 ft | 273 kts | 56° |
| 2026-05-05 13:55 | 28.18264 | -15.22650 | 5346 ft | 275 kts | 56° |
| 2026-05-05 13:55 | 28.19337 | -15.20833 | 5830 ft | 279 kts | 55° |
| 2026-05-05 13:55 | 28.20427 | -15.18984 | 6547 ft | 285 kts | 56° |
| 2026-05-05 13:55 | 28.21537 | -15.17095 | 7217 ft | 290 kts | 56° |
| 2026-05-05 13:56 | 28.22660 | -15.15173 | 7883 ft | 295 kts | 56° |
| 2026-05-05 13:56 | 28.23806 | -15.13207 | 8529 ft | 302 kts | 56° |
| 2026-05-05 13:56 | 28.24973 | -15.11200 | 9161 ft | 308 kts | 56° |
| 2026-05-05 13:56 | 28.26166 | -15.09150 | 9786 ft | 314 kts | 56° |
| 2026-05-05 13:57 | 28.27393 | -15.07047 | 10234 ft | 328 kts | 56° |
| 2026-05-05 13:57 | 28.28697 | -15.04815 | 10386 ft | 351 kts | 56° |
| 2026-05-05 13:57 | 28.30081 | -15.02439 | 10639 ft | 368 kts | 56° |
| 2026-05-05 13:57 | 28.31506 | -14.99986 | 11161 ft | 375 kts | 56° |
| 2026-05-05 13:58 | 28.32955 | -14.97495 | 11730 ft | 381 kts | 56° |
| 2026-05-05 13:58 | 28.34426 | -14.94969 | 12308 ft | 387 kts | 56° |
| 2026-05-05 13:58 | 28.35923 | -14.92398 | 12856 ft | 393 kts | 55° |
| 2026-05-05 13:58 | 28.37440 | -14.89789 | 13405 ft | 399 kts | 55° |
| 2026-05-05 13:59 | 28.40536 | -14.84450 | 14440 ft | 410 kts | 55° |
| 2026-05-05 13:59 | 28.42109 | -14.81729 | 14953 ft | 414 kts | 55° |
| 2026-05-05 14:00 | 28.45297 | -14.76206 | 16032 ft | 421 kts | 56° |
| 2026-05-05 14:00 | 28.46364 | -14.74358 | 16370 ft | 424 kts | 56° |
| 2026-05-05 14:00 | 28.48544 | -14.70590 | 17036 ft | 429 kts | 55° |
| 2026-05-05 14:00 | 28.50193 | -14.67740 | 17525 ft | 434 kts | 56° |
| 2026-05-05 14:01 | 28.51836 | -14.64895 | 18002 ft | 438 kts | 56° |
| 2026-05-05 14:01 | 28.53517 | -14.61981 | 18466 ft | 442 kts | 56° |
| 2026-05-05 14:01 | 28.55210 | -14.59043 | 18894 ft | 446 kts | 56° |
| 2026-05-05 14:01 | 28.56917 | -14.56075 | 19310 ft | 450 kts | 55° |
| 2026-05-05 14:02 | 28.58638 | -14.53083 | 19736 ft | 454 kts | 55° |
| 2026-05-05 14:02 | 28.60376 | -14.50062 | 20160 ft | 458 kts | 55° |
| 2026-05-05 14:02 | 28.62131 | -14.47011 | 20580 ft | 462 kts | 56° |
| 2026-05-05 14:02 | 28.63896 | -14.43937 | 20994 ft | 466 kts | 56° |
| 2026-05-05 14:03 | 28.65677 | -14.40832 | 21406 ft | 470 kts | 56° |